sensor_id;sensor_type;location;lat;lon;timestamp;pressure;altitude;pressure_sealevel;temperature;humidity
8101;BME280;4093;53.470;9.832;2024-02-15T00:00:31;101344.06;;;14.71;100.00
8101;BME280;4093;53.470;9.832;2024-02-15T00:02:59;101336.47;;;14.64;99.87
8101;BME280;4093;53.470;9.832;2024-02-15T00:05:27;101341.47;;;14.71;99.86
8101;BME280;4093;53.470;9.832;2024-02-15T00:07:55;101339.16;;;14.59;99.54
8101;BME280;4093;53.470;9.832;2024-02-15T00:10:24;101336.69;;;14.54;100.00
8101;BME280;4093;53.470;9.832;2024-02-15T00:12:51;101339.50;;;14.44;100.00
8101;BME280;4093;53.470;9.832;2024-02-15T00:15:19;101342.22;;;14.75;99.87
8101;BME280;4093;53.470;9.832;2024-02-15T00:17:47;101338.34;;;14.91;98.78
8101;BME280;4093;53.470;9.832;2024-02-15T00:20:15;101345.19;;;14.95;98.45
8101;BME280;4093;53.470;9.832;2024-02-15T00:22:44;101348.75;;;14.91;99.27
8101;BME280;4093;53.470;9.832;2024-02-15T00:25:11;101353.50;;;15.10;97.82
8101;BME280;4093;53.470;9.832;2024-02-15T00:27:41;101341.31;;;14.76;100.00
8101;BME280;4093;53.470;9.832;2024-02-15T00:30:10;101323.16;;;14.37;100.00
8101;BME280;4093;53.470;9.832;2024-02-15T00:32:38;101341.44;;;14.35;100.00
8101;BME280;4093;53.470;9.832;2024-02-15T00:35:07;101348.59;;;14.63;100.00
8101;BME280;4093;53.470;9.832;2024-02-15T00:37:37;101352.03;;;14.99;98.77
8101;BME280;4093;53.470;9.832;2024-02-15T00:40:06;101346.03;;;14.96;99.73
8101;BME280;4093;53.470;9.832;2024-02-15T00:42:34;101341.22;;;14.80;98.91
8101;BME280;4093;53.470;9.832;2024-02-15T00:45:03;101347.13;;;14.87;99.46
8101;BME280;4093;53.470;9.832;2024-02-15T00:47:31;101342.94;;;14.81;99.95
8101;BME280;4093;53.470;9.832;2024-02-15T00:49:59;101346.81;;;14.99;98.63
8101;BME280;4093;53.470;9.832;2024-02-15T00:52:27;101347.28;;;14.81;99.77
8101;BME280;4093;53.470;9.832;2024-02-15T00:54:57;101350.03;;;14.76;99.28
8101;BME280;4093;53.470;9.832;2024-02-15T00:57:24;101332.19;;;14.60;100.00
8101;BME280;4093;53.470;9.832;2024-02-15T00:59:52;101338.78;;;14.74;99.73
8101;BME280;4093;53.470;9.832;2024-02-15T01:02:21;101334.16;;;14.51;100.00
8101;BME280;4093;53.470;9.832;2024-02-15T01:04:51;101344.97;;;15.03;99.89
8101;BME280;4093;53.470;9.832;2024-02-15T01:07:19;101346.41;;;15.15;97.81
8101;BME280;4093;53.470;9.832;2024-02-15T01:09:47;101345.75;;;14.74;100.00
8101;BME280;4093;53.470;9.832;2024-02-15T01:12:15;101351.72;;;14.77;99.77
8101;BME280;4093;53.470;9.832;2024-02-15T01:14:43;101345.06;;;14.66;99.68
8101;BME280;4093;53.470;9.832;2024-02-15T01:17:11;101343.50;;;14.58;100.00
8101;BME280;4093;53.470;9.832;2024-02-15T01:19:40;101364.16;;;15.00;99.43
8101;BME280;4093;53.470;9.832;2024-02-15T01:22:08;101363.28;;;15.01;99.51
8101;BME280;4093;53.470;9.832;2024-02-15T01:24:35;101347.66;;;14.66;100.00
8101;BME280;4093;53.470;9.832;2024-02-15T01:27:04;101353.88;;;14.94;100.00
8101;BME280;4093;53.470;9.832;2024-02-15T01:29:34;101348.22;;;14.78;100.00
8101;BME280;4093;53.470;9.832;2024-02-15T01:32:03;101338.00;;;14.71;100.00
8101;BME280;4093;53.470;9.832;2024-02-15T01:34:31;101342.91;;;14.83;100.00
8101;BME280;4093;53.470;9.832;2024-02-15T01:37:00;101348.59;;;14.97;98.93
8101;BME280;4093;53.470;9.832;2024-02-15T01:39:28;101347.13;;;14.87;99.56
8101;BME280;4093;53.470;9.832;2024-02-15T01:41:56;101340.00;;;14.95;98.19
8101;BME280;4093;53.470;9.832;2024-02-15T01:44:25;101349.66;;;14.90;99.90
8101;BME280;4093;53.470;9.832;2024-02-15T01:46:53;101343.44;;;14.62;100.00
8101;BME280;4093;53.470;9.832;2024-02-15T01:49:22;101343.13;;;14.74;100.00
8101;BME280;4093;53.470;9.832;2024-02-15T01:51:51;101339.22;;;14.92;99.66
8101;BME280;4093;53.470;9.832;2024-02-15T01:54:22;101326.59;;;14.75;99.90
8101;BME280;4093;53.470;9.832;2024-02-15T01:56:50;101346.03;;;14.96;98.98
8101;BME280;4093;53.470;9.832;2024-02-15T01:59:18;101340.47;;;14.77;99.28
8101;BME280;4093;53.470;9.832;2024-02-15T02:01:47;101339.84;;;14.67;100.00
8101;BME280;4093;53.470;9.832;2024-02-15T02:04:15;101347.44;;;15.09;99.08
8101;BME280;4093;53.470;9.832;2024-02-15T02:06:43;101348.44;;;15.03;99.03
8101;BME280;4093;53.470;9.832;2024-02-15T02:09:11;101344.22;;;14.99;99.43
8101;BME280;4093;53.470;9.832;2024-02-15T02:11:44;101340.59;;;15.05;98.05
8101;BME280;4093;53.470;9.832;2024-02-15T02:14:12;101347.13;;;14.87;99.36
8101;BME280;4093;53.470;9.832;2024-02-15T02:16:40;101347.69;;;15.31;97.60
8101;BME280;4093;53.470;9.832;2024-02-15T02:19:08;101340.13;;;15.22;97.46
8101;BME280;4093;53.470;9.832;2024-02-15T02:21:36;101342.13;;;15.14;98.68
8101;BME280;4093;53.470;9.832;2024-02-15T02:24:12;101342.38;;;15.36;97.67
8101;BME280;4093;53.470;9.832;2024-02-15T02:26:42;101337.84;;;15.11;98.56
8101;BME280;4093;53.470;9.832;2024-02-15T02:29:11;101340.78;;;15.30;97.23
8101;BME280;4093;53.470;9.832;2024-02-15T02:31:39;101330.50;;;14.93;99.02
8101;BME280;4093;53.470;9.832;2024-02-15T02:34:06;101332.66;;;15.10;98.94
8101;BME280;4093;53.470;9.832;2024-02-15T02:36:35;101343.81;;;15.15;98.02
8101;BME280;4093;53.470;9.832;2024-02-15T02:39:04;101338.09;;;15.00;98.74
8101;BME280;4093;53.470;9.832;2024-02-15T02:41:33;101348.81;;;15.22;98.92
8101;BME280;4093;53.470;9.832;2024-02-15T02:44:03;101334.72;;;14.97;98.58
8101;BME280;4093;53.470;9.832;2024-02-15T02:46:31;101313.63;;;15.08;97.79
8101;BME280;4093;53.470;9.832;2024-02-15T02:48:58;101339.88;;;15.31;98.10
8101;BME280;4093;53.470;9.832;2024-02-15T02:51:26;101336.63;;;15.23;98.43
8101;BME280;4093;53.470;9.832;2024-02-15T02:53:54;101326.94;;;15.28;98.51
8101;BME280;4093;53.470;9.832;2024-02-15T02:56:22;101332.06;;;15.31;97.13
8101;BME280;4093;53.470;9.832;2024-02-15T02:58:50;101331.38;;;15.24;97.95
8101;BME280;4093;53.470;9.832;2024-02-15T03:01:22;101316.22;;;15.08;98.35
8101;BME280;4093;53.470;9.832;2024-02-15T03:03:51;101325.81;;;15.06;99.42
8101;BME280;4093;53.470;9.832;2024-02-15T03:06:21;101325.53;;;15.16;98.49
8101;BME280;4093;53.470;9.832;2024-02-15T03:08:51;101336.09;;;15.10;98.73
8101;BME280;4093;53.470;9.832;2024-02-15T03:11:20;101343.56;;;15.24;99.04
8101;BME280;4093;53.470;9.832;2024-02-15T03:13:49;101339.16;;;14.93;99.94
8101;BME280;4093;53.470;9.832;2024-02-15T03:16:16;101339.84;;;15.00;100.00
8101;BME280;4093;53.470;9.832;2024-02-15T03:18:46;101338.34;;;14.91;99.47
8101;BME280;4093;53.470;9.832;2024-02-15T03:21:15;101344.34;;;15.27;98.59
8101;BME280;4093;53.470;9.832;2024-02-15T03:23:44;101349.31;;;15.35;97.80
8101;BME280;4093;53.470;9.832;2024-02-15T03:26:12;101354.78;;;15.26;98.31
8101;BME280;4093;53.470;9.832;2024-02-15T03:28:40;101355.44;;;15.34;98.30
8101;BME280;4093;53.470;9.832;2024-02-15T03:31:08;101350.25;;;15.01;99.10
8101;BME280;4093;53.470;9.832;2024-02-15T03:33:36;101341.53;;;15.02;99.09
8101;BME280;4093;53.470;9.832;2024-02-15T03:36:07;101342.78;;;14.88;99.74
8101;BME280;4093;53.470;9.832;2024-02-15T03:38:36;101344.63;;;15.17;98.58
8101;BME280;4093;53.470;9.832;2024-02-15T03:41:04;101362.25;;;15.38;98.56
8101;BME280;4093;53.470;9.832;2024-02-15T03:43:32;101358.47;;;15.50;97.07
8101;BME280;4093;53.470;9.832;2024-02-15T03:46:00;101350.88;;;15.10;99.73
8101;BME280;4093;53.470;9.832;2024-02-15T03:48:28;101355.41;;;15.36;97.63
8101;BME280;4093;53.470;9.832;2024-02-15T03:50:57;101353.34;;;15.47;97.30
8101;BME280;4093;53.470;9.832;2024-02-15T03:53:26;101360.66;;;15.67;96.17
8101;BME280;4093;53.470;9.832;2024-02-15T03:55:57;101359.88;;;15.62;96.75
8101;BME280;4093;53.470;9.832;2024-02-15T03:58:27;101349.16;;;15.41;96.40
8101;BME280;4093;53.470;9.832;2024-02-15T04:00:54;101353.25;;;15.19;98.09
8101;BME280;4093;53.470;9.832;2024-02-15T04:03:23;101362.19;;;15.41;97.21
8101;BME280;4093;53.470;9.832;2024-02-15T04:05:52;101361.59;;;15.63;96.61
8101;BME280;4093;53.470;9.832;2024-02-15T04:08:19;101361.50;;;15.66;96.49
8101;BME280;4093;53.470;9.832;2024-02-15T04:10:49;101357.13;;;15.66;96.27
8101;BME280;4093;53.470;9.832;2024-02-15T04:13:19;101359.25;;;15.54;95.77
8101;BME280;4093;53.470;9.832;2024-02-15T04:15:47;101353.31;;;15.48;95.93
8101;BME280;4093;53.470;9.832;2024-02-15T04:18:17;101312.56;;;15.13;96.65
8101;BME280;4093;53.470;9.832;2024-02-15T04:20:45;101366.19;;;15.55;96.54
8101;BME280;4093;53.470;9.832;2024-02-15T04:23:13;101366.00;;;15.61;95.61
8101;BME280;4093;53.470;9.832;2024-02-15T04:25:40;101375.72;;;15.54;96.84
8101;BME280;4093;53.470;9.832;2024-02-15T04:28:12;101369.47;;;15.61;95.34
8101;BME280;4093;53.470;9.832;2024-02-15T04:30:39;101374.25;;;15.45;96.43
8101;BME280;4093;53.470;9.832;2024-02-15T04:33:07;101372.59;;;15.41;97.19
8101;BME280;4093;53.470;9.832;2024-02-15T04:35:35;101383.47;;;15.57;95.82
8101;BME280;4093;53.470;9.832;2024-02-15T04:38:03;101383.47;;;15.57;96.22
8101;BME280;4093;53.470;9.832;2024-02-15T04:40:31;101386.44;;;15.45;96.73
8101;BME280;4093;53.470;9.832;2024-02-15T04:42:58;101377.97;;;15.35;97.47
8101;BME280;4093;53.470;9.832;2024-02-15T04:45:29;101379.28;;;15.20;98.36
8101;BME280;4093;53.470;9.832;2024-02-15T04:47:58;101385.72;;;15.38;97.89
8101;BME280;4093;53.470;9.832;2024-02-15T04:50:28;101377.63;;;15.16;97.79
8101;BME280;4093;53.470;9.832;2024-02-15T04:52:57;101388.31;;;15.40;97.40
8101;BME280;4093;53.470;9.832;2024-02-15T04:55:24;101392.69;;;15.38;97.33
8101;BME280;4093;53.470;9.832;2024-02-15T04:57:53;101390.59;;;15.50;97.31
8101;BME280;4093;53.470;9.832;2024-02-15T05:00:23;101389.91;;;15.44;97.15
8101;BME280;4093;53.470;9.832;2024-02-15T05:02:53;101389.66;;;15.55;97.07
8101;BME280;4093;53.470;9.832;2024-02-15T05:05:21;101398.00;;;15.67;95.83
8101;BME280;4093;53.470;9.832;2024-02-15T05:07:51;101400.56;;;15.69;96.08
8101;BME280;4093;53.470;9.832;2024-02-15T05:10:19;101394.03;;;15.53;96.78
8101;BME280;4093;53.470;9.832;2024-02-15T05:12:46;101386.13;;;15.23;97.40
8101;BME280;4093;53.470;9.832;2024-02-15T05:15:15;101390.84;;;15.41;97.36
8101;BME280;4093;53.470;9.832;2024-02-15T05:17:45;101388.63;;;15.27;97.36
8101;BME280;4093;53.470;9.832;2024-02-15T05:20:16;101389.56;;;15.58;96.26
8101;BME280;4093;53.470;9.832;2024-02-15T05:22:44;101387.13;;;15.52;96.67
8101;BME280;4093;53.470;9.832;2024-02-15T05:25:16;101383.56;;;15.21;97.38
8101;BME280;4093;53.470;9.832;2024-02-15T05:27:50;101383.69;;;15.49;96.45
8101;BME280;4093;53.470;9.832;2024-02-15T05:30:20;101379.41;;;15.47;96.33
8101;BME280;4093;53.470;9.832;2024-02-15T05:32:48;101385.03;;;15.64;96.09
8101;BME280;4093;53.470;9.832;2024-02-15T05:35:18;101379.81;;;15.32;97.51
8101;BME280;4093;53.470;9.832;2024-02-15T05:37:46;101381.91;;;15.52;97.49
8101;BME280;4093;53.470;9.832;2024-02-15T05:40:13;101376.72;;;15.50;95.68
8101;BME280;4093;53.470;9.832;2024-02-15T05:42:42;101299.13;;;14.97;97.16
8101;BME280;4093;53.470;9.832;2024-02-15T05:45:28;101366.31;;;15.17;98.09
8101;BME280;4093;53.470;9.832;2024-02-15T05:47:59;101368.47;;;15.34;97.11
8101;BME280;4093;53.470;9.832;2024-02-15T05:50:28;101374.03;;;15.53;96.85
8101;BME280;4093;53.470;9.832;2024-02-15T05:52:58;101370.22;;;15.34;97.33
8101;BME280;4093;53.470;9.832;2024-02-15T05:55:28;101364.03;;;15.05;98.74
8101;BME280;4093;53.470;9.832;2024-02-15T05:57:55;101367.09;;;15.21;98.04
8101;BME280;4093;53.470;9.832;2024-02-15T06:00:23;101374.97;;;15.50;97.23
8101;BME280;4093;53.470;9.832;2024-02-15T06:02:51;101379.22;;;15.22;98.19
8101;BME280;4093;53.470;9.832;2024-02-15T06:05:19;101395.56;;;15.60;95.46
8101;BME280;4093;53.470;9.832;2024-02-15T06:07:48;101395.03;;;15.48;97.12
8101;BME280;4093;53.470;9.832;2024-02-15T06:10:16;101393.13;;;15.54;96.43
8101;BME280;4093;53.470;9.832;2024-02-15T06:12:45;101384.25;;;15.28;98.31
8101;BME280;4093;53.470;9.832;2024-02-15T06:15:13;101368.88;;;14.86;99.50
8101;BME280;4093;53.470;9.832;2024-02-15T06:17:43;101369.31;;;14.68;100.00
8101;BME280;4093;53.470;9.832;2024-02-15T06:20:13;101344.34;;;14.61;100.00
8101;BME280;4093;53.470;9.832;2024-02-15T06:22:42;101391.59;;;15.14;98.39
8101;BME280;4093;53.470;9.832;2024-02-15T06:25:11;101383.59;;;14.87;99.66
8101;BME280;4093;53.470;9.832;2024-02-15T06:27:39;101399.16;;;15.23;99.24
8101;BME280;4093;53.470;9.832;2024-02-15T06:30:09;101401.00;;;15.19;98.51
8101;BME280;4093;53.470;9.832;2024-02-15T06:32:55;101393.91;;;15.24;98.05
8101;BME280;4093;53.470;9.832;2024-02-15T06:35:40;101385.13;;;14.96;99.80
8101;BME280;4093;53.470;9.832;2024-02-15T06:38:26;101394.69;;;14.94;100.00
8101;BME280;4093;53.470;9.832;2024-02-15T06:41:13;101388.50;;;14.99;99.93
8101;BME280;4093;53.470;9.832;2024-02-15T06:43:41;101384.81;;;15.07;98.91
8101;BME280;4093;53.470;9.832;2024-02-15T06:46:09;101381.59;;;14.97;100.00
8101;BME280;4093;53.470;9.832;2024-02-15T06:48:37;101376.97;;;14.37;100.00
8101;BME280;4093;53.470;9.832;2024-02-15T06:51:07;101395.19;;;14.74;100.00
8101;BME280;4093;53.470;9.832;2024-02-15T06:53:39;101400.34;;;15.11;100.00
8101;BME280;4093;53.470;9.832;2024-02-15T06:56:08;101385.13;;;14.94;99.60
8101;BME280;4093;53.470;9.832;2024-02-15T06:58:38;101392.44;;;14.80;100.00
8101;BME280;4093;53.470;9.832;2024-02-15T07:01:07;101382.34;;;14.68;100.00
8101;BME280;4093;53.470;9.832;2024-02-15T07:03:35;101396.34;;;14.98;100.00
8101;BME280;4093;53.470;9.832;2024-02-15T07:06:04;101394.69;;;14.95;100.00
8101;BME280;4093;53.470;9.832;2024-02-15T07:08:32;101401.06;;;15.16;98.96
8101;BME280;4093;53.470;9.832;2024-02-15T07:11:00;101400.81;;;15.27;99.25
8101;BME280;4093;53.470;9.832;2024-02-15T07:13:30;101398.59;;;15.12;98.72
8101;BME280;4093;53.470;9.832;2024-02-15T07:16:02;101397.47;;;15.22;97.71
8101;BME280;4093;53.470;9.832;2024-02-15T07:18:30;101399.56;;;15.40;96.41
8101;BME280;4093;53.470;9.832;2024-02-15T07:20:58;101410.00;;;15.40;97.57
8101;BME280;4093;53.470;9.832;2024-02-15T07:23:28;101402.41;;;14.98;98.61
8101;BME280;4093;53.470;9.832;2024-02-15T07:25:56;101395.53;;;14.96;98.99
8101;BME280;4093;53.470;9.832;2024-02-15T07:28:24;101405.31;;;15.20;98.50
8101;BME280;4093;53.470;9.832;2024-02-15T07:30:53;101392.53;;;15.11;98.88
8101;BME280;4093;53.470;9.832;2024-02-15T07:33:23;101397.34;;;15.26;98.59
8101;BME280;4093;53.470;9.832;2024-02-15T07:35:52;101395.72;;;15.55;96.88
8101;BME280;4093;53.470;9.832;2024-02-15T07:38:20;101399.34;;;15.49;97.69
8101;BME280;4093;53.470;9.832;2024-02-15T07:40:49;101367.88;;;15.24;96.86
8101;BME280;4093;53.470;9.832;2024-02-15T07:43:17;101394.47;;;15.03;99.05
8101;BME280;4093;53.470;9.832;2024-02-15T07:45:45;101402.16;;;15.42;98.41
8101;BME280;4093;53.470;9.832;2024-02-15T07:48:15;101392.53;;;15.44;97.28
8101;BME280;4093;53.470;9.832;2024-02-15T07:50:45;101390.09;;;15.05;99.73
8101;BME280;4093;53.470;9.832;2024-02-15T07:53:13;101407.78;;;15.25;98.86
8101;BME280;4093;53.470;9.832;2024-02-15T07:55:41;101408.19;;;15.10;99.94
8101;BME280;4093;53.470;9.832;2024-02-15T07:58:09;101416.53;;;15.22;99.38
8101;BME280;4093;53.470;9.832;2024-02-15T08:00:37;101414.81;;;15.56;97.44
8101;BME280;4093;53.470;9.832;2024-02-15T08:03:05;101407.22;;;15.46;96.92
8101;BME280;4093;53.470;9.832;2024-02-15T08:05:34;101421.34;;;15.39;98.86
8101;BME280;4093;53.470;9.832;2024-02-15T08:08:06;101406.88;;;15.26;98.81
8101;BME280;4093;53.470;9.832;2024-02-15T08:10:33;101402.25;;;15.04;100.00
8101;BME280;4093;53.470;9.832;2024-02-15T08:13:01;101423.63;;;15.52;97.92
8101;BME280;4093;53.470;9.832;2024-02-15T08:15:29;101421.88;;;15.50;98.97
8101;BME280;4093;53.470;9.832;2024-02-15T08:17:57;101419.19;;;15.54;98.50
8101;BME280;4093;53.470;9.832;2024-02-15T08:20:25;101414.88;;;15.53;97.59
8101;BME280;4093;53.470;9.832;2024-02-15T08:22:57;101404.19;;;15.31;99.12
8101;BME280;4093;53.470;9.832;2024-02-15T08:25:27;101416.41;;;15.60;98.27
8101;BME280;4093;53.470;9.832;2024-02-15T08:27:55;101405.97;;;15.61;97.51
8101;BME280;4093;53.470;9.832;2024-02-15T08:30:22;101401.91;;;15.82;96.99
8101;BME280;4093;53.470;9.832;2024-02-15T08:32:51;101396.97;;;15.40;98.71
8101;BME280;4093;53.470;9.832;2024-02-15T08:35:22;101401.53;;;15.63;98.36
8101;BME280;4093;53.470;9.832;2024-02-15T08:37:50;101401.19;;;15.44;99.49
8101;BME280;4093;53.470;9.832;2024-02-15T08:40:19;101400.25;;;15.48;99.59
8101;BME280;4093;53.470;9.832;2024-02-15T08:42:53;101403.44;;;15.58;99.42
8101;BME280;4093;53.470;9.832;2024-02-15T08:45:22;101404.56;;;15.48;99.15
8101;BME280;4093;53.470;9.832;2024-02-15T08:47:50;101392.47;;;15.14;100.00
8101;BME280;4093;53.470;9.832;2024-02-15T08:50:19;101397.66;;;15.47;99.79
8101;BME280;4093;53.470;9.832;2024-02-15T08:52:50;101355.34;;;15.37;98.63
8101;BME280;4093;53.470;9.832;2024-02-15T08:55:18;101402.53;;;15.59;98.63
8101;BME280;4093;53.470;9.832;2024-02-15T08:57:50;101391.91;;;15.34;100.00
8101;BME280;4093;53.470;9.832;2024-02-15T09:00:20;101392.00;;;14.98;100.00
8101;BME280;4093;53.470;9.832;2024-02-15T09:02:48;101392.91;;;15.30;100.00
8101;BME280;4093;53.470;9.832;2024-02-15T09:05:16;101399.94;;;15.59;99.82
8101;BME280;4093;53.470;9.832;2024-02-15T09:07:45;101394.69;;;15.28;100.00
8101;BME280;4093;53.470;9.832;2024-02-15T09:10:14;101404.22;;;15.62;98.64
8101;BME280;4093;53.470;9.832;2024-02-15T09:12:45;101397.50;;;15.20;100.00
8101;BME280;4093;53.470;9.832;2024-02-15T09:15:16;101398.41;;;15.52;99.31
8101;BME280;4093;53.470;9.832;2024-02-15T09:17:46;101394.59;;;15.31;100.00
8101;BME280;4093;53.470;9.832;2024-02-15T09:20:15;101398.91;;;15.65;99.10
8101;BME280;4093;53.470;9.832;2024-02-15T09:22:48;101397.19;;;15.33;100.00
8101;BME280;4093;53.470;9.832;2024-02-15T09:25:16;101394.44;;;15.37;99.88
8101;BME280;4093;53.470;9.832;2024-02-15T09:27:44;101370.88;;;15.42;99.68
8101;BME280;4093;53.470;9.832;2024-02-15T09:30:13;101402.50;;;15.61;100.00
8101;BME280;4093;53.470;9.832;2024-02-15T09:32:42;101396.59;;;15.21;100.00
8101;BME280;4093;53.470;9.832;2024-02-15T09:35:13;101396.66;;;15.51;100.00
8101;BME280;4093;53.470;9.832;2024-02-15T09:37:44;101403.16;;;15.36;100.00
8101;BME280;4093;53.470;9.832;2024-02-15T09:40:13;101412.78;;;15.65;99.40
8101;BME280;4093;53.470;9.832;2024-02-15T09:42:42;101409.31;;;15.34;100.00
8101;BME280;4093;53.470;9.832;2024-02-15T09:45:11;101403.09;;;15.39;100.00
8101;BME280;4093;53.470;9.832;2024-02-15T09:47:42;101402.16;;;15.42;99.73
8101;BME280;4093;53.470;9.832;2024-02-15T09:50:13;101411.88;;;15.66;98.38
8101;BME280;4093;53.470;9.832;2024-02-15T09:52:44;101402.44;;;15.62;99.40
8101;BME280;4093;53.470;9.832;2024-02-15T09:55:13;101413.47;;;16.05;98.46
8101;BME280;4093;53.470;9.832;2024-02-15T09:57:42;101401.03;;;15.50;99.17
8101;BME280;4093;53.470;9.832;2024-02-15T10:00:11;101376.88;;;15.45;99.61
8101;BME280;4093;53.470;9.832;2024-02-15T10:02:45;101414.66;;;15.93;98.32
8101;BME280;4093;53.470;9.832;2024-02-15T10:05:14;101404.84;;;15.71;99.16
8101;BME280;4093;53.470;9.832;2024-02-15T10:07:43;101418.44;;;15.83;99.04
8101;BME280;4093;53.470;9.832;2024-02-15T10:10:16;101413.81;;;15.92;98.59
8101;BME280;4093;53.470;9.832;2024-02-15T10:12:45;101406.06;;;15.89;98.57
8101;BME280;4093;53.470;9.832;2024-02-15T10:15:29;101406.44;;;15.76;97.96
8101;BME280;4093;53.470;9.832;2024-02-15T10:18:00;101416.31;;;16.25;97.45
8101;BME280;4093;53.470;9.832;2024-02-15T10:20:30;101395.91;;;15.80;98.96
8101;BME280;4093;53.470;9.832;2024-02-15T10:23:10;101387.56;;;15.66;98.88
8101;BME280;4093;53.470;9.832;2024-02-15T10:25:40;101390.00;;;15.73;99.64
8101;BME280;4093;53.470;9.832;2024-02-15T10:28:09;101412.00;;;16.24;98.58
8101;BME280;4093;53.470;9.832;2024-02-15T10:30:38;101407.00;;;16.16;98.22
8101;BME280;4093;53.470;9.832;2024-02-15T10:33:10;101386.53;;;15.73;99.62
8101;BME280;4093;53.470;9.832;2024-02-15T10:35:47;101403.81;;;16.36;97.09
8101;BME280;4093;53.470;9.832;2024-02-15T10:38:15;101386.13;;;16.45;96.38
8101;BME280;4093;53.470;9.832;2024-02-15T10:40:46;101400.00;;;16.47;96.20
8101;BME280;4093;53.470;9.832;2024-02-15T10:43:15;101399.06;;;16.77;95.75
8101;BME280;4093;53.470;9.832;2024-02-15T10:45:45;101390.63;;;16.68;95.25
8101;BME280;4093;53.470;9.832;2024-02-15T10:48:16;101380.44;;;16.32;96.83
8101;BME280;4093;53.470;9.832;2024-02-15T10:50:46;101390.22;;;16.53;96.52
8101;BME280;4093;53.470;9.832;2024-02-15T10:53:26;101392.38;;;16.67;95.44
8101;BME280;4093;53.470;9.832;2024-02-15T10:56:04;101382.72;;;16.42;96.08
8101;BME280;4093;53.470;9.832;2024-02-15T10:58:43;101372.38;;;16.39;96.14
8101;BME280;4093;53.470;9.832;2024-02-15T11:01:17;101379.63;;;16.58;96.19
8101;BME280;4093;53.470;9.832;2024-02-15T11:03:51;101364.56;;;16.39;97.28
8101;BME280;4093;53.470;9.832;2024-02-15T11:06:21;101324.41;;;15.87;97.83
8101;BME280;4093;53.470;9.832;2024-02-15T11:08:52;101372.59;;;16.32;96.68
8101;BME280;4093;53.470;9.832;2024-02-15T11:11:20;101367.91;;;16.15;98.49
8101;BME280;4093;53.470;9.832;2024-02-15T11:13:48;101359.91;;;15.60;100.00
8101;BME280;4093;53.470;9.832;2024-02-15T11:16:41;101367.16;;;16.11;98.64
8101;BME280;4093;53.470;9.832;2024-02-15T11:19:10;101362.59;;;15.90;98.61
8101;BME280;4093;53.470;9.832;2024-02-15T11:21:56;101358.03;;;15.96;99.30
8101;BME280;4093;53.470;9.832;2024-02-15T11:24:28;101356.47;;;16.19;97.52
8101;BME280;4093;53.470;9.832;2024-02-15T11:26:58;101355.25;;;16.03;98.64
8101;BME280;4093;53.470;9.832;2024-02-15T11:29:48;101362.31;;;15.99;98.52
8101;BME280;4093;53.470;9.832;2024-02-15T11:32:34;101347.03;;;15.56;100.00
8101;BME280;4093;53.470;9.832;2024-02-15T11:35:03;101342.75;;;15.22;100.00
8101;BME280;4093;53.470;9.832;2024-02-15T11:38:06;101353.06;;;15.58;100.00
8101;BME280;4093;53.470;9.832;2024-02-15T11:41:10;101356.16;;;16.02;99.13
8101;BME280;4093;53.470;9.832;2024-02-15T11:43:49;101349.53;;;15.59;100.00
8101;BME280;4093;53.470;9.832;2024-02-15T11:46:18;101348.34;;;16.00;99.88
8101;BME280;4093;53.470;9.832;2024-02-15T11:48:46;101333.63;;;15.69;99.17
8101;BME280;4093;53.470;9.832;2024-02-15T11:51:29;101341.91;;;15.53;100.00
8101;BME280;4093;53.470;9.832;2024-02-15T11:54:04;101353.47;;;16.03;99.06
8101;BME280;4093;53.470;9.832;2024-02-15T11:56:49;101355.16;;;16.34;97.40
8101;BME280;4093;53.470;9.832;2024-02-15T11:59:21;101337.81;;;15.75;99.36
8101;BME280;4093;53.470;9.832;2024-02-15T12:01:59;101331.81;;;15.40;100.00
8101;BME280;4093;53.470;9.832;2024-02-15T12:04:46;101283.16;;;15.10;100.00
8101;BME280;4093;53.470;9.832;2024-02-15T12:07:31;101339.25;;;16.13;98.29
8101;BME280;4093;53.470;9.832;2024-02-15T12:10:18;101332.88;;;15.95;98.24
8101;BME280;4093;53.470;9.832;2024-02-15T12:13:04;101336.41;;;15.93;99.69
8101;BME280;4093;53.470;9.832;2024-02-15T12:15:56;101339.63;;;16.29;97.85
8101;BME280;4093;53.470;9.832;2024-02-15T12:18:42;101337.38;;;16.18;97.75
8101;BME280;4093;53.470;9.832;2024-02-15T12:21:15;101282.94;;;15.48;99.44
8101;BME280;4093;53.470;9.832;2024-02-15T12:23:44;101327.09;;;15.84;99.24
8101;BME280;4093;53.470;9.832;2024-02-15T12:26:14;101331.19;;;15.93;97.70
8101;BME280;4093;53.470;9.832;2024-02-15T12:28:50;101312.31;;;15.54;100.00
8101;BME280;4093;53.470;9.832;2024-02-15T12:31:18;101317.44;;;15.57;100.00
8101;BME280;4093;53.470;9.832;2024-02-15T12:33:46;101316.44;;;15.31;100.00
8101;BME280;4093;53.470;9.832;2024-02-15T12:36:19;101331.03;;;15.98;99.96
8101;BME280;4093;53.470;9.832;2024-02-15T12:38:58;101328.81;;;15.85;99.86
8101;BME280;4093;53.470;9.832;2024-02-15T12:41:27;101320.41;;;15.76;99.73
8101;BME280;4093;53.470;9.832;2024-02-15T12:43:57;101311.13;;;15.95;99.19
8101;BME280;4093;53.470;9.832;2024-02-15T12:46:25;101316.13;;;16.03;98.91
8101;BME280;4093;53.470;9.832;2024-02-15T12:49:06;101311.81;;;16.02;98.94
8101;BME280;4093;53.470;9.832;2024-02-15T12:51:35;101315.34;;;15.99;99.11
8101;BME280;4093;53.470;9.832;2024-02-15T12:54:08;101309.31;;;15.69;100.00
8101;BME280;4093;53.470;9.832;2024-02-15T12:56:39;101308.56;;;15.64;100.00
8101;BME280;4093;53.470;9.832;2024-02-15T12:59:07;101315.16;;;15.77;99.46
8101;BME280;4093;53.470;9.832;2024-02-15T13:01:34;101318.09;;;16.23;98.12
8101;BME280;4093;53.470;9.832;2024-02-15T13:04:02;101307.56;;;15.98;99.30
8101;BME280;4093;53.470;9.832;2024-02-15T13:06:32;101307.66;;;15.94;99.40
8101;BME280;4093;53.470;9.832;2024-02-15T13:09:02;101295.09;;;15.79;99.03
8101;BME280;4093;53.470;9.832;2024-02-15T13:11:32;101305.19;;;15.90;99.42
8101;BME280;4093;53.470;9.832;2024-02-15T13:14:02;101299.41;;;15.80;99.48
8101;BME280;4093;53.470;9.832;2024-02-15T13:16:31;101293.97;;;15.57;100.00
8101;BME280;4093;53.470;9.832;2024-02-15T13:18:59;101302.81;;;15.82;99.73
8101;BME280;4093;53.470;9.832;2024-02-15T13:21:27;101280.22;;;15.22;100.00
8101;BME280;4093;53.470;9.832;2024-02-15T13:23:57;101296.09;;;15.75;100.00
8101;BME280;4093;53.470;9.832;2024-02-15T13:26:25;101302.50;;;15.93;99.74